createdAt,value
2023-05-09T00:00:32.079Z,71.62
2023-05-09T00:05:48.608Z,71.41
2023-05-09T00:10:55.108Z,71.11
2023-05-09T00:15:59.409Z,71.32
2023-05-09T00:21:04.664Z,71.58
2023-05-09T00:26:08.901Z,71.81
2023-05-09T00:31:14.052Z,72.08
2023-05-09T00:36:18.530Z,72.23
2023-05-09T00:41:23.413Z,72.41
2023-05-09T00:46:28.328Z,72.45
2023-05-09T00:51:33.174Z,72.74
2023-05-09T00:56:38.134Z,72.76
2023-05-09T01:01:44.110Z,73.03
2023-05-09T01:07:10.083Z,73.37
2023-05-09T01:12:40.086Z,73.27
2023-05-09T01:18:10.258Z,74.18
2023-05-09T01:23:37.425Z,74.35
2023-05-09T01:29:13.574Z,74.50
2023-05-09T01:34:19.056Z,75.08
2023-05-09T01:39:24.231Z,75.69
2023-05-09T01:44:34.480Z,76.10
2023-05-09T01:49:40.617Z,75.96
2023-05-09T01:54:46.387Z,75.02
2023-05-09T01:59:53.910Z,75.26
2023-05-09T02:04:58.197Z,75.81
2023-05-09T02:10:05.555Z,76.53
2023-05-09T02:15:11.971Z,75.92
2023-05-09T02:20:19.722Z,75.73
2023-05-09T02:25:23.731Z,76.23
2023-05-09T02:30:31.996Z,75.74
2023-05-09T02:35:38.303Z,75.82
2023-05-09T02:40:45.706Z,76.32
2023-05-09T02:45:50.262Z,76.14
2023-05-09T02:50:55.549Z,76.24
2023-05-09T02:55:59.807Z,76.63
2023-05-09T03:01:04.563Z,77.59
2023-05-09T03:06:08.899Z,77.35
2023-05-09T03:11:12.981Z,77.26
2023-05-09T03:16:18.873Z,77.27
2023-05-09T03:21:23.906Z,77.40
2023-05-09T03:26:31.188Z,78.10
2023-05-09T03:31:36.506Z,77.28
2023-05-09T03:36:46.593Z,77.54
2023-05-09T03:41:52.335Z,78.61
2023-05-09T03:46:56.596Z,78.27
2023-05-09T03:52:03.916Z,78.13
2023-05-09T03:57:09.547Z,77.62
2023-05-09T04:02:15.101Z,77.26
2023-05-09T04:07:21.215Z,75.94
2023-05-09T04:12:25.710Z,70.72
2023-05-09T04:17:30.208Z,64.92
2023-05-09T04:22:34.663Z,61.33
2023-05-09T04:27:39.056Z,57.80
2023-05-09T04:32:46.358Z,55.04
2023-05-09T04:37:53.766Z,53.06
2023-05-09T04:42:59.447Z,51.22
2023-05-09T04:48:06.660Z,48.45
2023-05-09T04:53:11.525Z,47.33
2023-05-09T04:58:16.564Z,46.60
2023-05-09T05:03:22.656Z,46.03
2023-05-09T05:08:27.777Z,46.29
2023-05-09T05:13:31.846Z,50.23
2023-05-09T05:18:37.622Z,54.41
2023-05-09T05:23:42.613Z,57.43
2023-05-09T05:28:48.113Z,59.37
2023-05-09T05:33:53.260Z,60.65
2023-05-09T05:38:58.290Z,61.46
2023-05-09T05:44:03.225Z,61.78
2023-05-09T05:49:09.155Z,61.81
2023-05-09T05:54:13.137Z,61.72
2023-05-09T05:59:17.166Z,61.69
2023-05-09T06:04:21.704Z,61.17
2023-05-09T06:09:26.396Z,61.15
2023-05-09T06:14:30.258Z,60.55
2023-05-09T06:19:34.928Z,59.97
2023-05-09T06:24:39.103Z,60.06
2023-05-09T06:29:42.810Z,59.54
2023-05-09T06:34:47.613Z,58.69
2023-05-09T06:39:51.324Z,57.97
2023-05-09T06:44:55.316Z,57.29
2023-05-09T06:49:58.938Z,56.96
2023-05-09T06:55:08.924Z,56.13
2023-05-09T07:00:16.082Z,56.69
2023-05-09T07:05:19.906Z,56.23
2023-05-09T07:10:24.029Z,55.95
2023-05-09T07:15:40.422Z,54.71
2023-05-09T07:20:45.638Z,54.26
2023-05-09T07:25:49.413Z,54.66
2023-05-09T07:30:55.593Z,53.84
2023-05-09T07:36:00.734Z,53.81
2023-05-09T07:41:07.196Z,53.63
2023-05-09T07:46:11.774Z,51.75
2023-05-09T07:51:16.459Z,51.15
2023-05-09T07:56:20.074Z,50.94
2023-05-09T08:01:23.895Z,51.48
2023-05-09T08:06:29.079Z,51.94
2023-05-09T08:11:36.400Z,50.76
2023-05-09T08:16:40.148Z,50.09
2023-05-09T08:21:43.936Z,49.96
2023-05-09T08:26:48.531Z,49.02
2023-05-09T08:31:53.425Z,47.46
2023-05-09T08:36:57.293Z,48.67
2023-05-09T08:42:02.306Z,47.89
2023-05-09T08:47:07.111Z,47.56
2023-05-09T08:52:11.974Z,47.23
2023-05-09T08:57:16.060Z,46.39
2023-05-09T09:02:20.283Z,45.50
2023-05-09T09:07:26.284Z,45.11
2023-05-09T09:12:30.219Z,45.80
2023-05-09T09:17:33.999Z,45.83
2023-05-09T09:22:38.731Z,44.72
2023-05-09T09:27:42.689Z,44.67
2023-05-09T09:32:46.560Z,44.05
2023-05-09T09:37:59.857Z,44.36
2023-05-09T09:43:08.733Z,45.18
2023-05-09T09:48:13.755Z,44.97
2023-05-09T09:53:20.815Z,43.30
2023-05-09T09:58:25.941Z,43.33
2023-05-09T10:03:39.293Z,43.57
2023-05-09T10:08:47.271Z,43.41
2023-05-09T10:13:51.851Z,42.46
2023-05-09T10:18:56.008Z,42.21
2023-05-09T10:24:00.883Z,42.98
2023-05-09T10:29:08.668Z,42.51
2023-05-09T10:34:13.722Z,42.55
2023-05-09T10:39:20.922Z,42.56
2023-05-09T10:44:25.800Z,42.96
2023-05-09T10:49:30.087Z,42.80
2023-05-09T10:54:37.127Z,42.61
2023-05-09T10:59:42.548Z,42.52
2023-05-09T11:04:46.286Z,43.79
2023-05-09T11:09:54.365Z,44.44
2023-05-09T11:15:08.139Z,42.64
2023-05-09T11:20:11.728Z,41.55
2023-05-09T11:25:18.198Z,41.81
2023-05-09T11:30:23.089Z,41.21
2023-05-09T11:35:27.620Z,41.19
2023-05-09T11:40:32.174Z,41.09
2023-05-09T11:45:35.892Z,41.11
2023-05-09T11:50:41.504Z,40.31
2023-05-09T11:55:45.130Z,39.72
2023-05-09T12:00:49.537Z,39.45
2023-05-09T12:05:55.552Z,40.43
2023-05-09T12:11:09.279Z,39.21
2023-05-09T12:16:13.236Z,39.97
2023-05-09T12:21:18.626Z,40.07
2023-05-09T12:26:23.262Z,39.25
2023-05-09T12:31:27.056Z,38.87
2023-05-09T12:36:35.366Z,39.51
2023-05-09T12:42:00.617Z,38.05
2023-05-09T12:47:05.673Z,38.06
2023-05-09T12:52:19.437Z,39.33
2023-05-09T12:57:25.552Z,37.91
2023-05-09T13:02:35.362Z,37.53
2023-05-09T13:07:43.859Z,37.47
2023-05-09T13:12:49.489Z,37.87
2023-05-09T13:17:54.501Z,37.19
2023-05-09T13:22:58.199Z,37.32
2023-05-09T13:28:02.436Z,38.32
2023-05-09T13:33:23.775Z,37.69
2023-05-09T13:38:31.288Z,36.59
2023-05-09T13:43:35.942Z,37.09
2023-05-09T13:48:40.143Z,37.00
2023-05-09T13:53:43.927Z,37.25
2023-05-09T13:58:47.702Z,38.22
2023-05-09T14:03:51.626Z,37.10
2023-05-09T14:08:56.992Z,37.04
2023-05-09T14:14:01.085Z,37.95
2023-05-09T14:19:05.029Z,38.43
2023-05-09T14:24:12.061Z,37.90
2023-05-09T14:29:17.150Z,37.39
2023-05-09T14:34:21.159Z,36.82
2023-05-09T14:39:25.753Z,36.36
2023-05-09T14:44:30.123Z,36.00
2023-05-09T14:49:39.178Z,36.80
2023-05-09T14:54:43.300Z,37.11
2023-05-09T14:59:47.245Z,35.63
2023-05-09T15:04:52.044Z,35.76
2023-05-09T15:09:55.873Z,36.78
2023-05-09T15:15:13.339Z,37.80
2023-05-09T15:20:20.187Z,38.13
2023-05-09T15:25:25.392Z,38.10
2023-05-09T15:30:30.003Z,37.95
2023-05-09T15:35:34.190Z,38.33
2023-05-09T15:40:41.374Z,38.66
2023-05-09T15:45:48.653Z,37.72
2023-05-09T15:50:54.139Z,37.89
2023-05-09T15:55:58.189Z,38.35
2023-05-09T16:01:06.113Z,38.12
2023-05-09T16:06:10.941Z,37.49
2023-05-09T16:11:15.827Z,37.38
2023-05-09T16:16:19.849Z,37.96
2023-05-09T16:21:28.102Z,38.04
2023-05-09T16:26:32.285Z,38.31
2023-05-09T16:31:36.158Z,38.07
2023-05-09T16:36:40.371Z,37.83
2023-05-09T16:41:45.317Z,38.30
2023-05-09T16:46:48.967Z,38.35
2023-05-09T16:51:54.093Z,35.37
2023-05-09T16:56:57.991Z,33.79
2023-05-09T17:02:01.998Z,33.45
2023-05-09T17:07:07.552Z,32.11
2023-05-09T17:12:17.816Z,31.88
2023-05-09T17:17:23.149Z,32.17
2023-05-09T17:22:27.452Z,30.68
2023-05-09T17:27:34.683Z,31.48
2023-05-09T17:32:42.733Z,30.78
2023-05-09T17:37:46.492Z,31.49
2023-05-09T17:42:50.672Z,32.87
2023-05-09T17:47:54.791Z,33.89
2023-05-09T17:52:58.918Z,35.17
2023-05-09T17:58:02.724Z,36.36
2023-05-09T18:03:06.607Z,37.25
2023-05-09T18:08:10.489Z,37.71
2023-05-09T18:13:14.517Z,38.45
2023-05-09T18:18:18.603Z,39.12
2023-05-09T18:23:25.308Z,40.01
2023-05-09T18:28:29.873Z,40.69
2023-05-09T18:33:40.019Z,41.26
2023-05-09T18:38:44.886Z,41.72
2023-05-09T18:43:49.986Z,42.90
2023-05-09T18:48:55.537Z,44.06
2023-05-09T18:54:03.389Z,45.10
2023-05-09T18:59:09.992Z,46.11
2023-05-09T19:04:15.376Z,47.47
2023-05-09T19:09:22.266Z,48.46
2023-05-09T19:14:28.741Z,48.94
2023-05-09T19:19:35.476Z,49.39
2023-05-09T19:24:43.710Z,49.89
2023-05-09T19:29:49.931Z,49.89
2023-05-09T19:34:56.186Z,50.18
2023-05-09T19:40:08.022Z,50.63
2023-05-09T19:45:23.656Z,51.24
2023-05-09T19:50:31.741Z,51.53
2023-05-09T19:55:39.802Z,52.04
2023-05-09T20:00:56.384Z,52.32
2023-05-09T20:11:26.546Z,53.21
2023-05-09T20:16:39.013Z,53.60
2023-05-09T20:21:48.836Z,53.43
2023-05-09T20:26:57.872Z,53.38
2023-05-09T20:32:11.205Z,53.48
2023-05-09T20:37:18.064Z,53.72
2023-05-09T20:42:28.995Z,54.02
2023-05-09T20:47:34.804Z,53.81
2023-05-09T20:52:39.639Z,53.62
2023-05-09T20:57:43.682Z,53.87
2023-05-09T21:02:48.120Z,54.17
2023-05-09T21:07:52.070Z,54.07
2023-05-09T21:12:56.184Z,54.16
2023-05-09T21:18:00.531Z,54.19
2023-05-09T21:23:05.272Z,54.44
2023-05-09T21:28:09.524Z,54.56
2023-05-09T21:33:13.852Z,54.59
2023-05-09T21:38:17.869Z,54.94
2023-05-09T21:43:21.734Z,55.19
2023-05-09T21:48:27.183Z,55.16
2023-05-09T21:53:31.112Z,55.89
2023-05-09T21:58:34.963Z,55.61
2023-05-09T22:03:40.428Z,55.69
2023-05-09T22:08:46.034Z,56.20
2023-05-09T22:13:51.047Z,56.71
2023-05-09T22:18:55.331Z,57.37
2023-05-09T22:23:59.478Z,57.32
2023-05-09T22:29:03.826Z,57.12
2023-05-09T22:34:08.487Z,57.10
2023-05-09T22:39:14.586Z,57.55
2023-05-09T22:44:18.709Z,58.06
2023-05-09T22:49:23.301Z,58.65
2023-05-09T22:54:27.772Z,58.89
2023-05-09T22:59:32.586Z,58.65
2023-05-09T23:04:36.883Z,58.52
2023-05-09T23:09:41.240Z,58.86
2023-05-09T23:14:46.930Z,58.77
2023-05-09T23:19:51.529Z,58.94
2023-05-09T23:24:56.045Z,58.89
2023-05-09T23:30:00.164Z,59.09
2023-05-09T23:35:06.267Z,59.15
2023-05-09T23:40:12.424Z,59.21
2023-05-09T23:45:17.537Z,59.72
2023-05-09T23:50:22.561Z,60.06
2023-05-09T23:55:26.581Z,60.37
